Time;durP1;ratioP1;P1;durP2;ratioP2;P2;SDS_P1;SDS_P2;PMS_P1;PMS_P2;Temp;Humidity;BMP_temperature;BMP_pressure;BME280_temperature;BME280_humidity;BME280_pressure;Samples;Min_cycle;Max_cycle;Signal;HPM_P1;HPM_P2
2024/03/20 00:02:17;;;;;;;15.35;3.10;;;11.20;91.20;;;;;;5051350;28;20185;-86
2024/03/20 00:04:43;;;;;;;18.00;3.80;;;11.20;92.50;;;;;;5069099;28;20541;-86
2024/03/20 00:07:08;;;;;;;18.50;4.40;;;11.20;95.20;;;;;;5068568;28;20153;-86
2024/03/20 00:09:37;;;;;;;17.63;4.03;;;11.20;95.70;;;;;;5069460;28;20170;-86
2024/03/20 00:12:03;;;;;;;14.70;3.28;;;11.20;95.60;;;;;;5069504;28;20205;-86
2024/03/20 00:14:28;;;;;;;19.30;3.97;;;11.10;95.20;;;;;;5051651;28;20181;-86
2024/03/20 00:16:56;;;;;;;17.30;3.37;;;11.10;95.80;;;;;;5061107;28;20161;-85
2024/03/20 00:19:23;;;;;;;17.20;3.33;;;11.10;95.70;;;;;;5041855;28;20665;-85
2024/03/20 00:21:48;;;;;;;17.17;3.20;;;11.10;96.70;;;;;;5060555;28;20686;-84
2024/03/20 00:24:14;;;;;;;21.20;4.90;;;11.10;97.20;;;;;;5060403;28;20219;-85
2024/03/20 00:26:40;;;;;;;16.42;3.95;;;11.00;98.50;;;;;;5042013;28;20196;-85
2024/03/20 00:29:06;;;;;;;17.40;4.50;;;11.00;99.60;;;;;;5059711;28;20169;-85
2024/03/20 00:31:31;;;;;;;17.47;4.07;;;11.00;99.30;;;;;;5059825;28;20198;-85
2024/03/20 00:33:57;;;;;;;16.30;3.70;;;11.00;99.90;;;;;;5059679;28;20193;-85
2024/03/20 00:36:23;;;;;;;15.90;4.20;;;10.90;99.90;;;;;;5059115;28;20200;-85
2024/03/20 00:38:48;;;;;;;16.77;4.00;;;10.90;99.90;;;;;;5041452;28;20165;-85
2024/03/20 00:41:14;;;;;;;16.83;3.70;;;10.90;99.90;;;;;;5059776;28;20203;-85
2024/03/20 00:43:40;;;;;;;16.87;5.03;;;10.90;99.90;;;;;;5059685;28;20166;-85
2024/03/20 00:46:05;;;;;;;17.23;5.03;;;10.90;99.90;;;;;;5059330;28;20248;-85
2024/03/20 00:48:31;;;;;;;16.67;4.70;;;10.80;99.90;;;;;;5059060;28;20227;-85
2024/03/20 00:50:57;;;;;;;16.03;3.87;;;10.80;99.90;;;;;;5058508;28;20243;-85
2024/03/20 00:53:22;;;;;;;18.80;4.30;;;10.80;99.90;;;;;;5041097;28;20604;-86
2024/03/20 00:55:48;;;;;;;21.37;5.20;;;10.80;99.90;;;;;;5059018;28;20176;-85
2024/03/20 00:58:14;;;;;;;17.50;4.30;;;10.80;99.90;;;;;;5059093;28;20216;-85
2024/03/20 01:00:40;;;;;;;19.47;5.60;;;10.80;99.90;;;;;;5059369;28;20188;-85
2024/03/20 01:03:06;;;;;;;18.55;5.55;;;10.80;99.90;;;;;;5040500;28;20177;-85
2024/03/20 01:05:32;;;;;;;19.37;5.00;;;10.70;99.90;;;;;;5058140;28;20247;-85
2024/03/20 01:07:58;;;;;;;16.57;4.30;;;10.70;99.90;;;;;;5040679;28;20169;-85
2024/03/20 01:10:23;;;;;;;18.00;4.77;;;10.70;99.90;;;;;;5058886;28;20657;-85
2024/03/20 01:12:51;;;;;;;18.27;5.00;;;10.60;99.90;;;;;;5040530;28;20196;-85
2024/03/20 01:15:16;;;;;;;18.30;4.38;;;10.70;99.90;;;;;;5058759;28;20164;-85
2024/03/20 01:17:43;;;;;;;18.90;4.80;;;10.60;99.90;;;;;;5059017;28;20615;-85
2024/03/20 01:20:10;;;;;;;15.90;4.50;;;10.70;99.90;;;;;;5058393;28;20164;-85
2024/03/20 01:22:38;;;;;;;17.35;4.32;;;10.60;99.90;;;;;;5040545;28;20193;-85
2024/03/20 01:25:04;;;;;;;18.95;4.97;;;10.60;99.90;;;;;;5040351;28;20173;-85
2024/03/20 01:27:30;;;;;;;15.48;4.50;;;10.60;99.90;;;;;;5058674;28;20167;-85
2024/03/20 01:29:56;;;;;;;16.90;4.90;;;10.60;99.90;;;;;;5057781;28;20260;-85
2024/03/20 01:32:22;;;;;;;15.20;3.77;;;10.50;99.90;;;;;;5058033;28;20424;-85
2024/03/20 01:34:51;;;;;;;18.77;4.70;;;10.40;99.90;;;;;;5058127;28;20162;-85
2024/03/20 01:37:16;;;;;;;16.67;4.43;;;10.30;99.90;;;;;;5058368;28;20169;-85
2024/03/20 01:39:42;;;;;;;18.13;4.67;;;10.30;99.90;;;;;;5065210;28;20653;-86
2024/03/20 01:42:08;;;;;;;20.40;4.40;;;10.40;99.90;;;;;;5066652;28;20311;-86
2024/03/20 01:44:34;;;;;;;22.00;5.20;;;10.30;99.90;;;;;;5068294;28;20403;-86
2024/03/20 01:47:01;;;;;;;23.53;4.63;;;10.30;99.90;;;;;;5067511;28;20223;-86
2024/03/20 01:49:27;;;;;;;17.30;4.22;;;10.30;99.90;;;;;;5049399;28;20165;-86
2024/03/20 01:51:53;;;;;;;20.10;5.43;;;10.30;99.90;;;;;;5068499;28;20185;-86
2024/03/20 01:54:19;;;;;;;16.48;4.10;;;10.30;99.90;;;;;;5066978;28;20454;-86
2024/03/20 01:56:44;;;;;;;16.30;3.90;;;10.20;99.90;;;;;;5049469;28;20169;-86
2024/03/20 01:59:10;;;;;;;16.73;4.67;;;10.20;99.90;;;;;;5067369;28;20161;-86
2024/03/20 02:01:37;;;;;;;17.95;5.05;;;10.10;99.90;;;;;;5066728;28;20181;-86
2024/03/20 02:04:06;;;;;;;21.65;4.95;;;10.10;99.90;;;;;;5066957;28;20233;-86
2024/03/20 02:06:32;;;;;;;16.98;4.80;;;10.10;99.90;;;;;;5049159;28;20172;-86
2024/03/20 02:08:59;;;;;;;23.77;4.53;;;10.00;99.90;;;;;;5066930;28;20169;-86
2024/03/20 02:11:27;;;;;;;18.08;4.95;;;10.00;99.90;;;;;;5048747;28;20185;-86
2024/03/20 02:13:54;;;;;;;17.92;4.43;;;10.00;99.90;;;;;;5048840;28;20195;-86
2024/03/20 02:16:21;;;;;;;19.42;5.18;;;10.00;99.90;;;;;;5049481;28;20512;-86
2024/03/20 02:18:48;;;;;;;20.48;5.18;;;10.00;99.90;;;;;;5066729;28;20165;-86
2024/03/20 02:21:20;;;;;;;21.02;5.82;;;10.00;99.90;;;;;;5067056;28;20181;-86
2024/03/20 02:23:46;;;;;;;17.83;4.78;;;9.90;99.90;;;;;;5066735;28;20161;-86
2024/03/20 02:26:11;;;;;;;17.48;4.93;;;9.90;99.90;;;;;;5066261;28;20638;-86
2024/03/20 02:28:42;;;;;;;17.60;5.47;;;9.80;99.90;;;;;;5048857;28;20195;-86
2024/03/20 02:31:09;;;;;;;20.38;5.35;;;9.80;99.90;;;;;;5066488;28;20210;-86
2024/03/20 02:33:36;;;;;;;16.20;4.88;;;9.70;99.90;;;;;;5066428;28;20193;-86
2024/03/20 02:36:03;;;;;;;18.70;4.85;;;9.80;99.90;;;;;;5067156;28;20176;-86
2024/03/20 02:38:34;;;;;;;20.30;5.10;;;9.80;99.90;;;;;;5049023;28;20165;-86
2024/03/20 02:41:00;;;;;;;18.50;5.35;;;9.70;99.90;;;;;;5066771;28;20255;-86
2024/03/20 02:43:27;;;;;;;17.55;5.50;;;9.70;99.90;;;;;;5066766;28;20171;-86
2024/03/20 02:45:53;;;;;;;18.08;5.00;;;9.60;99.90;;;;;;5066394;28;20538;-86
2024/03/20 02:48:19;;;;;;;19.08;5.00;;;9.50;99.90;;;;;;5066171;28;20212;-86
2024/03/20 02:50:45;;;;;;;21.40;6.53;;;9.50;99.90;;;;;;5048323;28;20682;-86
2024/03/20 02:53:10;;;;;;;20.00;5.57;;;9.40;99.90;;;;;;5066324;28;20261;-86
2024/03/20 02:55:39;;;;;;;18.70;5.20;;;9.40;99.90;;;;;;5066569;28;20199;-86
2024/03/20 02:58:04;;;;;;;17.17;5.38;;;9.30;99.90;;;;;;5048109;28;20172;-86
2024/03/20 03:00:31;;;;;;;20.87;5.27;;;9.30;99.90;;;;;;5065601;28;20161;-85
2024/03/20 03:02:58;;;;;;;16.58;4.70;;;9.30;99.90;;;;;;5057090;28;20180;-85
2024/03/20 03:05:25;;;;;;;19.73;5.10;;;9.20;99.90;;;;;;5038808;28;20180;-85
2024/03/20 03:07:51;;;;;;;21.13;5.63;;;9.20;99.90;;;;;;5056087;28;20164;-85
2024/03/20 03:10:19;;;;;;;17.63;5.43;;;9.10;99.90;;;;;;5037688;28;20196;-85
2024/03/20 03:12:46;;;;;;;17.60;4.80;;;9.10;99.90;;;;;;5057450;28;20272;-85
2024/03/20 03:15:12;;;;;;;18.23;5.20;;;9.20;99.90;;;;;;5060166;28;20157;-85
2024/03/20 03:17:39;;;;;;;18.98;5.22;;;9.20;99.90;;;;;;5041487;28;20198;-85
2024/03/20 03:20:06;;;;;;;16.88;4.45;;;9.20;99.90;;;;;;5041938;28;20173;-85
2024/03/20 03:22:33;;;;;;;17.15;5.00;;;9.20;99.90;;;;;;5059861;28;20188;-85
2024/03/20 03:24:59;;;;;;;18.80;5.18;;;9.20;99.90;;;;;;5059935;28;20196;-85
2024/03/20 03:27:25;;;;;;;19.40;5.27;;;9.30;99.90;;;;;;5059984;28;20172;-84
2024/03/20 03:29:50;;;;;;;20.27;4.60;;;9.30;99.90;;;;;;5059540;28;20169;-85
2024/03/20 03:32:16;;;;;;;19.00;6.23;;;9.30;99.90;;;;;;5059117;28;20527;-85
2024/03/20 03:34:41;;;;;;;17.83;5.23;;;9.30;99.90;;;;;;5059236;28;20161;-85
2024/03/20 03:37:07;;;;;;;17.73;5.10;;;9.30;99.90;;;;;;5041385;28;20635;-85
2024/03/20 03:39:33;;;;;;;21.53;5.03;;;9.30;99.90;;;;;;5059709;28;20169;-85
2024/03/20 03:41:58;;;;;;;19.40;4.93;;;9.30;99.90;;;;;;5058659;28;20280;-85
2024/03/20 03:44:24;;;;;;;19.43;5.43;;;9.40;99.90;;;;;;5059193;28;20508;-85
2024/03/20 03:46:51;;;;;;;19.97;5.73;;;9.40;99.90;;;;;;5059294;28;20215;-85
2024/03/20 03:49:17;;;;;;;17.95;5.47;;;9.40;99.90;;;;;;5058796;28;20184;-85
2024/03/20 03:51:43;;;;;;;23.73;5.87;;;9.30;99.90;;;;;;5041674;28;20189;-85
2024/03/20 03:54:08;;;;;;;18.70;6.30;;;9.30;99.90;;;;;;5059119;28;20666;-85
2024/03/20 03:56:34;;;;;;;16.70;4.47;;;9.30;99.90;;;;;;5041199;28;20164;-85
2024/03/20 03:59:00;;;;;;;20.40;4.80;;;9.30;99.90;;;;;;5058766;28;20166;-85
2024/03/20 04:01:25;;;;;;;20.77;5.40;;;9.20;99.90;;;;;;5058724;28;20181;-85
2024/03/20 04:03:51;;;;;;;17.27;5.13;;;9.20;99.90;;;;;;5058863;28;20252;-85
2024/03/20 04:06:17;;;;;;;17.80;4.90;;;9.20;99.90;;;;;;5058773;28;20169;-85
2024/03/20 04:08:42;;;;;;;18.20;4.90;;;9.20;99.90;;;;;;5040849;28;20184;-86
2024/03/20 04:11:08;;;;;;;19.60;5.57;;;9.20;99.90;;;;;;5040701;28;20189;-85
2024/03/20 04:13:33;;;;;;;16.30;4.70;;;9.10;99.90;;;;;;5058832;28;20197;-85
2024/03/20 04:15:59;;;;;;;17.70;4.50;;;9.10;99.90;;;;;;5058923;28;20207;-85
2024/03/20 04:18:25;;;;;;;21.07;5.40;;;9.00;99.90;;;;;;5059159;28;20169;-85
2024/03/20 04:20:50;;;;;;;23.37;6.20;;;9.00;99.90;;;;;;5041366;28;20184;-85
2024/03/20 04:23:16;;;;;;;16.37;4.60;;;9.00;99.90;;;;;;5044152;28;20288;-86
2024/03/20 04:25:42;;;;;;;16.60;4.63;;;8.90;99.90;;;;;;5069260;28;20223;-86
2024/03/20 04:28:07;;;;;;;17.47;5.40;;;8.90;99.90;;;;;;5050675;28;20408;-87
2024/03/20 04:30:34;;;;;;;18.00;4.90;;;8.80;99.90;;;;;;5050759;28;20203;-86
2024/03/20 04:32:59;;;;;;;18.23;5.03;;;8.90;99.90;;;;;;5067925;28;20735;-86
2024/03/20 04:35:25;;;;;;;18.80;4.67;;;9.00;99.90;;;;;;5069113;28;20173;-86
2024/03/20 04:37:51;;;;;;;18.87;4.83;;;9.00;99.90;;;;;;5068763;28;20408;-86
2024/03/20 04:40:17;;;;;;;18.70;4.70;;;9.00;99.90;;;;;;5050480;28;20247;-86
2024/03/20 04:42:42;;;;;;;20.27;4.77;;;9.10;99.90;;;;;;5068403;28;20162;-86
2024/03/20 04:45:11;;;;;;;17.70;4.27;;;9.10;99.90;;;;;;5050313;28;20195;-86
2024/03/20 04:47:37;;;;;;;18.33;4.75;;;9.10;99.90;;;;;;5069446;28;20161;-86
2024/03/20 04:50:08;;;;;;;20.43;4.90;;;9.20;99.90;;;;;;5051361;28;20188;-86
2024/03/20 04:52:34;;;;;;;17.67;5.40;;;9.10;99.90;;;;;;5069090;28;20451;-86
2024/03/20 04:55:00;;;;;;;26.33;5.30;;;9.10;99.90;;;;;;5069497;28;20170;-86
2024/03/20 04:57:25;;;;;;;16.83;5.00;;;9.10;99.90;;;;;;5068822;28;20158;-86
2024/03/20 04:59:51;;;;;;;17.63;4.67;;;9.10;99.90;;;;;;5068669;28;20172;-86
2024/03/20 05:02:17;;;;;;;20.47;5.60;;;9.10;99.90;;;;;;5068146;28;20189;-86
2024/03/20 05:04:42;;;;;;;21.27;5.07;;;9.10;99.90;;;;;;5068621;28;20166;-86
2024/03/20 05:07:08;;;;;;;17.80;5.10;;;9.10;99.90;;;;;;5067953;28;20408;-86
2024/03/20 05:09:34;;;;;;;15.53;3.87;;;9.20;99.90;;;;;;5068314;28;20185;-86
2024/03/20 05:12:00;;;;;;;23.33;5.10;;;9.20;99.90;;;;;;5050574;28;20431;-86
2024/03/20 05:14:26;;;;;;;16.70;4.40;;;9.20;99.90;;;;;;5068655;28;20212;-86
2024/03/20 05:16:52;;;;;;;21.20;4.43;;;9.10;99.90;;;;;;5049893;28;20193;-86
2024/03/20 05:19:18;;;;;;;18.10;4.90;;;9.10;99.90;;;;;;5068737;28;20210;-86
2024/03/20 05:21:43;;;;;;;20.20;4.82;;;9.10;99.90;;;;;;5050393;28;20439;-86
2024/03/20 05:24:09;;;;;;;18.10;4.70;;;9.10;99.90;;;;;;5068277;28;20161;-86
2024/03/20 05:26:36;;;;;;;15.30;3.53;;;9.00;99.90;;;;;;5068025;28;20156;-86
2024/03/20 05:29:02;;;;;;;18.27;4.53;;;9.00;99.90;;;;;;5068144;28;20161;-86
2024/03/20 05:31:30;;;;;;;20.80;5.00;;;8.90;99.90;;;;;;5067967;28;20631;-86
2024/03/20 05:33:56;;;;;;;17.23;4.75;;;8.90;99.90;;;;;;5050145;28;20327;-86
2024/03/20 05:36:22;;;;;;;16.53;4.10;;;8.90;99.90;;;;;;5067162;28;20666;-86
2024/03/20 05:38:48;;;;;;;18.45;4.68;;;8.90;99.90;;;;;;5068321;28;20404;-87
2024/03/20 05:41:14;;;;;;;25.07;5.20;;;8.90;99.90;;;;;;5067505;28;20207;-86
2024/03/20 05:43:41;;;;;;;20.33;5.15;;;8.90;99.90;;;;;;5067646;28;20165;-86
2024/03/20 05:46:09;;;;;;;19.17;4.40;;;8.80;99.90;;;;;;5042787;28;20173;-85
2024/03/20 05:48:39;;;;;;;19.75;5.10;;;8.80;99.90;;;;;;5039554;28;20165;-85
2024/03/20 05:51:06;;;;;;;17.55;4.57;;;8.80;99.90;;;;;;5057091;28;20188;-85
2024/03/20 05:53:32;;;;;;;19.08;4.97;;;8.90;99.90;;;;;;5039689;28;20743;-85
2024/03/20 05:55:58;;;;;;;17.17;5.90;;;8.90;99.90;;;;;;5038692;28;20173;-85
2024/03/20 05:58:24;;;;;;;17.70;5.28;;;8.90;99.90;;;;;;5039423;28;20224;-86
2024/03/20 06:00:50;;;;;;;19.60;4.83;;;8.90;99.90;;;;;;5038864;28;20217;-85
2024/03/20 06:03:15;;;;;;;19.40;5.20;;;9.00;99.90;;;;;;5057444;28;20211;-85
2024/03/20 06:05:41;;;;;;;16.37;4.70;;;9.00;99.90;;;;;;5056267;28;20176;-85
2024/03/20 06:08:06;;;;;;;18.37;5.10;;;9.00;99.90;;;;;;5038351;28;20169;-85
2024/03/20 06:10:32;;;;;;;16.50;4.40;;;9.10;99.90;;;;;;5056435;28;20177;-85
2024/03/20 06:12:58;;;;;;;18.60;5.43;;;9.10;99.90;;;;;;5056723;28;20193;-86
2024/03/20 06:15:24;;;;;;;21.80;4.90;;;9.20;99.90;;;;;;5056809;28;20456;-85
2024/03/20 06:17:49;;;;;;;18.67;5.07;;;9.20;99.90;;;;;;5056534;28;20222;-86
2024/03/20 06:20:15;;;;;;;17.07;4.97;;;9.20;99.90;;;;;;5038435;28;20172;-86
2024/03/20 06:22:41;;;;;;;20.67;5.57;;;9.20;99.90;;;;;;5038309;28;20179;-86
2024/03/20 06:25:08;;;;;;;20.55;5.55;;;9.20;99.90;;;;;;5056439;28;20175;-85
2024/03/20 06:27:34;;;;;;;19.90;5.50;;;9.30;99.90;;;;;;5056028;28;20173;-85
2024/03/20 06:30:03;;;;;;;19.00;6.47;;;9.40;99.90;;;;;;5057285;28;20168;-86
2024/03/20 06:32:31;;;;;;;17.67;4.90;;;9.40;99.90;;;;;;5041551;28;20185;-86
2024/03/20 06:34:56;;;;;;;21.48;5.75;;;9.40;99.90;;;;;;5058857;28;20526;-86
2024/03/20 06:37:22;;;;;;;17.33;5.53;;;9.50;99.90;;;;;;5040316;28;20161;-85
2024/03/20 06:39:48;;;;;;;22.13;5.83;;;9.50;99.90;;;;;;5041005;28;20172;-86
2024/03/20 06:42:20;;;;;;;24.07;5.57;;;9.60;99.90;;;;;;5059646;28;20204;-86
2024/03/20 06:44:49;;;;;;;20.42;5.65;;;9.70;99.90;;;;;;5060761;28;20217;-87
2024/03/20 06:47:18;;;;;;;20.02;6.20;;;9.70;99.90;;;;;;5059848;28;20539;-86
2024/03/20 06:49:44;;;;;;;22.65;6.60;;;9.80;99.90;;;;;;5059518;28;20161;-86
2024/03/20 06:52:19;;;;;;;28.75;6.03;;;9.80;99.90;;;;;;5060266;28;20197;-86
2024/03/20 06:54:46;;;;;;;18.88;5.93;;;9.80;99.90;;;;;;5059525;28;20149;-86
2024/03/20 06:57:13;;;;;;;25.05;6.28;;;9.90;99.90;;;;;;5040065;28;20546;-86
2024/03/20 06:59:40;;;;;;;25.20;6.80;;;10.00;99.90;;;;;;5058567;28;20168;-86
2024/03/20 07:02:06;;;;;;;25.45;7.18;;;10.10;99.90;;;;;;5040423;28;20186;-86
2024/03/20 07:04:32;;;;;;;23.45;7.60;;;10.10;99.90;;;;;;5041429;28;20722;-86
2024/03/20 07:06:58;;;;;;;23.73;8.10;;;10.20;99.90;;;;;;5044362;28;20204;-86
2024/03/20 07:09:25;;;;;;;23.90;7.65;;;10.20;99.90;;;;;;5066479;28;20404;-87
2024/03/20 07:11:53;;;;;;;23.00;6.82;;;10.30;99.90;;;;;;5065572;28;20185;-87
2024/03/20 07:14:19;;;;;;;23.85;6.68;;;10.30;99.90;;;;;;5065194;28;20193;-87
2024/03/20 07:16:45;;;;;;;27.37;8.53;;;10.40;99.90;;;;;;5066311;28;20268;-86
2024/03/20 07:19:11;;;;;;;24.73;7.30;;;10.40;99.90;;;;;;5048609;28;20416;-86
2024/03/20 07:21:40;;;;;;;19.95;7.65;;;10.50;99.90;;;;;;5065021;28;20422;-87
2024/03/20 07:24:06;;;;;;;26.20;8.57;;;10.60;99.90;;;;;;5065703;28;20229;-87
2024/03/20 07:26:39;;;;;;;21.70;7.50;;;10.70;99.90;;;;;;5065867;28;20166;-87
2024/03/20 07:29:09;;;;;;;25.58;9.15;;;10.70;99.90;;;;;;5045776;28;20173;-86
2024/03/20 07:31:36;;;;;;;30.98;9.88;;;10.70;99.90;;;;;;5063637;28;20199;-86
2024/03/20 07:34:11;;;;;;;22.67;8.40;;;10.80;99.90;;;;;;5063484;28;20189;-86
2024/03/20 07:36:36;;;;;;;29.15;10.80;;;10.90;99.90;;;;;;5064611;28;20141;-87
2024/03/20 07:39:04;;;;;;;27.20;8.83;;;11.00;99.90;;;;;;5064933;28;20169;-87
2024/03/20 07:41:31;;;;;;;22.52;6.93;;;11.10;99.90;;;;;;5065110;28;20196;-86
2024/03/20 07:43:56;;;;;;;20.45;7.10;;;11.10;99.90;;;;;;5064516;28;20165;-87
2024/03/20 07:46:23;;;;;;;22.00;7.50;;;11.20;99.90;;;;;;5045605;28;20275;-86
2024/03/20 07:48:49;;;;;;;25.98;7.57;;;11.20;99.90;;;;;;5044662;28;20173;-86
2024/03/20 07:51:22;;;;;;;28.02;8.93;;;11.30;99.90;;;;;;5063108;28;20204;-87
2024/03/20 07:53:48;;;;;;;23.00;6.50;;;11.40;99.90;;;;;;5064864;28;20204;-87
2024/03/20 07:56:14;;;;;;;25.17;8.30;;;11.40;99.90;;;;;;5046456;28;20165;-87
2024/03/20 07:58:46;;;;;;;20.95;7.40;;;11.50;99.90;;;;;;5065135;28;20184;-86
2024/03/20 08:01:11;;;;;;;21.23;8.23;;;11.50;99.90;;;;;;5067407;28;20177;-87
2024/03/20 08:03:39;;;;;;;23.90;7.17;;;11.50;99.90;;;;;;5066839;28;20542;-86
2024/03/20 08:06:05;;;;;;;24.15;8.43;;;11.60;99.90;;;;;;5049761;28;20173;-87
2024/03/20 08:08:31;;;;;;;27.08;7.80;;;11.60;99.90;;;;;;5049601;28;20176;-87
2024/03/20 08:10:56;;;;;;;25.80;8.10;;;11.70;99.90;;;;;;5049251;28;20554;-87
2024/03/20 08:13:22;;;;;;;25.27;8.10;;;11.80;99.90;;;;;;5068037;28;20451;-86
2024/03/20 08:15:48;;;;;;;23.17;8.40;;;11.90;99.90;;;;;;5067815;28;20264;-86
2024/03/20 08:18:14;;;;;;;26.23;9.20;;;11.90;99.90;;;;;;5067651;28;20169;-87
2024/03/20 08:20:39;;;;;;;24.13;8.17;;;12.00;99.90;;;;;;5067363;28;20201;-87
2024/03/20 08:23:05;;;;;;;21.23;6.80;;;12.10;99.90;;;;;;5067660;28;20184;-86
2024/03/20 08:25:31;;;;;;;21.13;6.55;;;12.20;99.90;;;;;;5067184;28;20593;-87
2024/03/20 08:27:57;;;;;;;23.50;8.30;;;12.30;99.90;;;;;;5062329;28;20165;-86
2024/03/20 08:30:24;;;;;;;25.13;8.27;;;12.40;99.90;;;;;;5042462;28;21011;-86
2024/03/20 08:32:50;;;;;;;27.05;8.80;;;12.50;99.90;;;;;;5042209;28;20451;-86
2024/03/20 08:35:17;;;;;;;24.38;8.38;;;12.50;99.90;;;;;;5060432;28;20164;-86
2024/03/20 08:37:46;;;;;;;24.13;8.68;;;12.50;99.90;;;;;;5064028;28;20342;-87
2024/03/20 08:40:15;;;;;;;22.92;8.05;;;12.60;99.90;;;;;;5065967;28;20631;-86
2024/03/20 08:42:41;;;;;;;23.40;8.07;;;12.70;99.90;;;;;;5060220;28;20201;-86
2024/03/20 08:45:08;;;;;;;24.35;8.30;;;12.70;99.90;;;;;;5061896;28;20249;-86
2024/03/20 08:47:37;;;;;;;25.70;8.13;;;12.80;99.90;;;;;;5043131;28;20180;-86
2024/03/20 08:50:04;;;;;;;21.23;8.33;;;12.90;99.90;;;;;;5042581;28;20169;-86
2024/03/20 08:52:30;;;;;;;25.30;9.15;;;13.00;99.90;;;;;;5045807;28;20515;-87
2024/03/20 08:54:55;;;;;;;26.13;9.73;;;13.10;99.90;;;;;;5059558;28;20582;-86
2024/03/20 08:57:21;;;;;;;24.13;9.37;;;13.10;99.90;;;;;;5061219;28;20165;-86
2024/03/20 08:59:48;;;;;;;22.47;8.10;;;13.20;99.90;;;;;;5059771;28;20183;-86
2024/03/20 09:02:14;;;;;;;24.10;9.43;;;13.20;99.90;;;;;;5059641;28;20184;-86
2024/03/20 09:04:40;;;;;;;32.50;9.63;;;13.20;99.90;;;;;;5060073;28;20772;-86
2024/03/20 09:07:06;;;;;;;27.10;9.70;;;13.20;99.90;;;;;;5060009;28;20400;-86
2024/03/20 09:09:32;;;;;;;24.57;8.07;;;13.30;99.90;;;;;;5059652;28;20454;-86
2024/03/20 09:12:07;;;;;;;24.30;9.27;;;13.40;99.90;;;;;;5058626;28;20415;-86
2024/03/20 09:14:33;;;;;;;26.23;8.65;;;13.40;99.90;;;;;;5059876;28;20435;-86
2024/03/20 09:16:59;;;;;;;27.30;8.38;;;13.50;99.90;;;;;;5060650;28;20187;-86
2024/03/20 09:19:25;;;;;;;22.20;7.30;;;13.50;99.90;;;;;;5059295;28;20161;-86
2024/03/20 09:21:51;;;;;;;22.63;8.20;;;13.60;99.90;;;;;;5041775;28;20419;-86
2024/03/20 09:24:19;;;;;;;19.00;6.70;;;13.80;98.40;;;;;;5059680;28;20410;-86
2024/03/20 09:26:46;;;;;;;23.00;7.90;;;13.90;96.90;;;;;;5042250;28;20173;-86
2024/03/20 09:29:12;;;;;;;19.57;6.90;;;14.00;94.90;;;;;;5059197;28;20407;-86
2024/03/20 09:31:38;;;;;;;21.63;7.17;;;14.10;93.20;;;;;;5058934;28;20911;-86
2024/03/20 09:34:05;;;;;;;22.80;7.23;;;14.20;88.20;;;;;;5058918;28;20530;-86
2024/03/20 09:36:31;;;;;;;22.60;7.53;;;14.20;70.10;;;;;;5058667;28;20396;-87
2024/03/20 09:38:57;;;;;;;28.47;7.50;;;14.30;64.50;;;;;;5058319;28;20429;-87
2024/03/20 09:41:26;;;;;;;19.60;7.30;;;14.40;53.20;;;;;;5060150;28;20277;-87
2024/03/20 09:43:52;;;;;;;19.77;6.10;;;14.60;52.30;;;;;;5059119;28;20168;-86
2024/03/20 09:46:19;;;;;;;24.30;7.13;;;14.70;49.60;;;;;;5059261;28;20403;-86
2024/03/20 09:48:49;;;;;;;20.90;7.20;;;14.90;37.00;;;;;;5058171;28;20400;-86
2024/03/20 09:51:25;;;;;;;20.13;6.20;;;15.00;20.10;;;;;;5058598;28;20415;-87
2024/03/20 09:53:52;;;;;;;19.90;5.43;;;15.00;9.00;;;;;;5058830;28;20431;-86
2024/03/20 09:56:25;;;;;;;21.27;6.20;;;15.10;8.90;;;;;;5066159;28;20400;-87
2024/03/20 09:58:52;;;;;;;17.97;5.33;;;15.10;1.00;;;;;;5065722;28;20387;-86
2024/03/20 10:01:20;;;;;;;17.47;5.00;;;15.20;1.00;;;;;;5046076;28;20497;-86
2024/03/20 10:03:55;;;;;;;22.03;5.40;;;15.20;1.00;;;;;;5046457;28;20434;-87
2024/03/20 10:06:22;;;;;;;18.10;4.90;;;15.20;1.00;;;;;;5062325;28;20380;-87
2024/03/20 10:08:48;;;;;;;19.10;4.13;;;15.50;1.00;;;;;;5064126;28;20404;-85
2024/03/20 10:11:14;;;;;;;18.93;4.27;;;15.70;1.00;;;;;;5045271;28;20514;-85
2024/03/20 10:13:41;;;;;;;18.10;4.13;;;15.80;1.00;;;;;;5062584;28;20532;-87
2024/03/20 10:16:08;;;;;;;23.60;4.53;;;15.90;1.00;;;;;;5046242;28;20283;-87
2024/03/20 10:18:35;;;;;;;19.67;4.20;;;16.10;1.00;;;;;;5044509;28;20411;-87
2024/03/20 10:21:02;;;;;;;16.43;4.57;;;16.10;1.00;;;;;;5062361;28;20419;-87
2024/03/20 10:23:28;;;;;;;16.70;4.67;;;16.30;1.00;;;;;;5044775;28;20411;-87
2024/03/20 10:25:57;;;;;;;17.23;4.30;;;16.40;1.00;;;;;;5062759;28;20399;-87
2024/03/20 10:28:26;;;;;;;16.60;4.60;;;16.60;1.00;;;;;;5062174;28;20777;-87
2024/03/20 10:30:52;;;;;;;29.33;5.00;;;16.80;1.00;;;;;;5061205;28;20499;-86
2024/03/20 10:33:19;;;;;;;16.30;3.90;;;17.00;1.00;;;;;;5061731;28;20443;-87
2024/03/20 10:35:54;;;;;;;26.53;4.60;;;17.20;1.00;;;;;;5063132;28;20235;-87
2024/03/20 10:38:20;;;;;;;17.20;4.47;;;17.00;1.00;;;;;;5043861;28;20458;-87
2024/03/20 10:40:51;;;;;;;16.57;3.80;;;17.10;1.00;;;;;;5043112;28;20431;-86
2024/03/20 10:43:24;;;;;;;20.20;4.13;;;17.30;1.00;;;;;;5045772;28;20454;-86
2024/03/20 10:45:54;;;;;;;20.53;4.90;;;17.30;1.00;;;;;;5063820;28;20388;-87
2024/03/20 10:48:24;;;;;;;14.90;2.67;;;17.30;1.00;;;;;;5062674;28;20479;-87
2024/03/20 10:50:51;;;;;;;15.03;3.20;;;17.40;1.00;;;;;;5045080;28;20502;-87
2024/03/20 10:53:22;;;;;;;18.90;3.70;;;17.60;1.00;;;;;;5059208;28;20447;-87
2024/03/20 10:55:54;;;;;;;14.70;2.40;;;17.70;1.00;;;;;;5061167;28;20454;-87
2024/03/20 10:58:24;;;;;;;14.60;3.00;;;17.70;1.00;;;;;;5060034;28;20407;-86
2024/03/20 11:00:55;;;;;;;16.70;3.30;;;17.90;1.00;;;;;;5059839;28;20434;-87
2024/03/20 11:03:47;;;;;;;21.07;3.40;;;18.30;1.00;;;;;;5041229;28;20427;-87
2024/03/20 11:06:26;;;;;;;16.37;3.50;;;18.30;1.00;;;;;;5040703;28;20921;-87
2024/03/20 11:08:56;;;;;;;14.40;2.53;;;18.60;1.00;;;;;;5059348;28;20407;-87
2024/03/20 11:11:29;;;;;;;17.60;2.70;;;18.80;1.00;;;;;;5060068;28;20612;-87
2024/03/20 11:13:58;;;;;;;14.83;3.23;;;18.90;1.00;;;;;;5058426;28;20516;-87
2024/03/20 11:16:24;;;;;;;16.03;3.37;;;19.20;1.00;;;;;;5040945;28;20407;-87
2024/03/20 11:18:57;;;;;;;21.70;2.53;;;19.30;1.00;;;;;;5059565;28;20430;-86
2024/03/20 11:21:25;;;;;;;17.17;2.53;;;19.10;1.00;;;;;;5041113;28;20235;-86
2024/03/20 11:23:53;;;;;;;16.17;3.23;;;18.90;1.00;;;;;;5041327;28;20401;-86
2024/03/20 11:26:19;;;;;;;15.97;3.07;;;19.10;1.00;;;;;;5057743;28;20471;-86
2024/03/20 11:28:47;;;;;;;14.80;2.83;;;19.30;1.00;;;;;;5057319;28;20428;-86
2024/03/20 11:31:16;;;;;;;14.77;2.57;;;19.30;1.00;;;;;;5055591;28;20450;-86
2024/03/20 11:33:43;;;;;;;18.50;2.83;;;19.10;1.00;;;;;;5057752;28;20441;-86
2024/03/20 11:36:19;;;;;;;19.67;2.90;;;18.90;1.00;;;;;;5060267;28;20520;-86
2024/03/20 11:38:46;;;;;;;15.60;2.07;;;18.80;1.00;;;;;;5060231;28;20395;-86
2024/03/20 11:41:12;;;;;;;15.03;2.60;;;18.80;1.00;;;;;;5042665;28;20552;-86
2024/03/20 11:43:43;;;;;;;16.50;2.30;;;19.10;1.00;;;;;;5043756;28;20998;-86
2024/03/20 11:46:15;;;;;;;13.37;1.80;;;18.90;99.90;;;;;;5060450;28;20384;-86
2024/03/20 11:48:40;;;;;;;13.10;1.70;;;19.00;1.00;;;;;;5042204;28;20458;-86
2024/03/20 11:51:11;;;;;;;12.80;1.73;;;19.20;1.00;;;;;;5041136;28;20432;-86
2024/03/20 11:53:39;;;;;;;13.00;1.93;;;19.40;99.90;;;;;;5058877;28;20181;-86
2024/03/20 11:56:06;;;;;;;16.97;2.10;;;19.50;99.90;;;;;;5042235;28;20521;-86
2024/03/20 11:58:35;;;;;;;15.90;1.70;;;19.40;99.90;;;;;;5042197;28;20407;-86
2024/03/20 12:01:08;;;;;;;14.33;1.70;;;19.40;99.90;;;;;;5025826;28;20437;-86
2024/03/20 12:03:38;;;;;;;15.30;2.33;;;19.60;99.90;;;;;;5059229;28;20397;-86
2024/03/20 12:06:08;;;;;;;13.73;2.60;;;20.10;99.90;;;;;;5059116;28;20408;-86
2024/03/20 12:08:34;;;;;;;12.87;1.70;;;20.50;99.90;;;;;;5041673;28;20845;-86
2024/03/20 12:11:33;;;;;;;14.00;2.47;;;20.00;99.90;;;;;;5040793;28;20966;-86
2024/03/20 12:13:59;;;;;;;14.30;2.40;;;20.10;99.90;;;;;;5059088;28;20436;-86
2024/03/20 12:16:29;;;;;;;14.43;2.30;;;20.10;99.90;;;;;;5060516;28;20457;-87
2024/03/20 12:18:55;;;;;;;15.00;2.70;;;20.00;99.90;;;;;;5041718;28;20197;-87
2024/03/20 12:21:22;;;;;;;12.80;1.97;;;19.90;99.90;;;;;;5057855;28;20423;-86
2024/03/20 12:23:51;;;;;;;14.67;2.40;;;19.90;99.90;;;;;;5040894;28;20428;-87
2024/03/20 12:26:24;;;;;;;16.10;2.13;;;19.50;99.90;;;;;;5039713;28;20416;-87
2024/03/20 12:28:51;;;;;;;13.60;2.23;;;19.60;99.90;;;;;;5038755;28;20447;-87
2024/03/20 12:31:22;;;;;;;14.67;2.10;;;19.40;99.90;;;;;;5057669;28;20427;-86
2024/03/20 12:33:52;;;;;;;15.20;2.90;;;19.30;99.90;;;;;;5041618;28;20480;-86
2024/03/20 12:36:21;;;;;;;12.97;1.87;;;19.40;99.90;;;;;;5058531;28;20431;-86
2024/03/20 12:38:49;;;;;;;16.87;2.07;;;19.30;99.90;;;;;;5058047;28;20420;-87
2024/03/20 12:41:16;;;;;;;14.83;2.00;;;19.40;99.90;;;;;;5058054;28;20863;-87
2024/03/20 12:43:42;;;;;;;17.70;1.87;;;19.70;99.90;;;;;;5058615;28;20425;-87